首页
METAR-TAF:

METAR-TAF

机场 :

Delta County Airport

Escanaba, 密歇根州, 美国

纬度: 45-45N, 经度: 087-02W, 海拔: 180米

当前天气观测

该预报发布于58分钟前的19:56 UTC
风速8节,风向北转西北
温度 18°C
湿度 77%
气压 1012 hPa
能見度: 16.1公里
少量云层高于3600英尺
散云层高于7000英尺
多云层高于8000英尺

METAR: KESC 231956Z AUTO 34008KT 10SM FEW036 SCT070 BKN080 18/14 A2989 RMK AO2 RAE1857 SLP127 T01830139

时间: 16:54 (20:54 UTC)


TAF: 丢失

超过4000个机场的气象观测和天气预报(METAR&TAF报告)。

可查询的气象台以黄色和红色小点在地图上表示。

将鼠标移到小点上方,可查看气象台名称。

然后点击查看天气观测和预报。

如需切换地图:点击带黑十字的绿色按钮放大地图;点击带横线的绿色按钮缩小地图;或者点击绿色箭头查看邻近地区的地图。


METAR-TAF: